sensor_id;sensor_type;location;lat;lon;timestamp;temperature;humidity
55436;DHT22;41307;53.142;6.430;2023-06-10T00:02:14;16.30;99.90
55436;DHT22;41307;53.142;6.430;2023-06-10T00:04:40;16.30;99.90
55436;DHT22;41307;53.142;6.430;2023-06-10T00:07:06;16.20;99.90
55436;DHT22;41307;53.142;6.430;2023-06-10T00:09:38;16.20;99.90
55436;DHT22;41307;53.142;6.430;2023-06-10T00:12:05;16.20;99.90
55436;DHT22;41307;53.142;6.430;2023-06-10T00:14:32;16.10;99.90
55436;DHT22;41307;53.142;6.430;2023-06-10T00:16:58;16.10;99.90
55436;DHT22;41307;53.142;6.430;2023-06-10T00:19:24;16.10;99.90
55436;DHT22;41307;53.142;6.430;2023-06-10T00:21:53;16.00;99.90
55436;DHT22;41307;53.142;6.430;2023-06-10T00:24:19;16.00;99.90
55436;DHT22;41307;53.142;6.430;2023-06-10T00:26:45;16.00;99.90
55436;DHT22;41307;53.142;6.430;2023-06-10T00:29:13;16.00;99.90
55436;DHT22;41307;53.142;6.430;2023-06-10T00:31:44;15.90;99.90
55436;DHT22;41307;53.142;6.430;2023-06-10T00:34:11;15.90;99.90
55436;DHT22;41307;53.142;6.430;2023-06-10T00:36:43;15.90;99.90
55436;DHT22;41307;53.142;6.430;2023-06-10T00:39:09;15.80;99.90
55436;DHT22;41307;53.142;6.430;2023-06-10T00:41:35;15.80;99.90
55436;DHT22;41307;53.142;6.430;2023-06-10T00:44:01;15.80;99.90
55436;DHT22;41307;53.142;6.430;2023-06-10T00:46:31;15.70;99.90
55436;DHT22;41307;53.142;6.430;2023-06-10T00:48:59;16.10;99.90
55436;DHT22;41307;53.142;6.430;2023-06-10T00:51:25;15.60;99.90
55436;DHT22;41307;53.142;6.430;2023-06-10T00:53:52;15.60;99.90
55436;DHT22;41307;53.142;6.430;2023-06-10T00:56:18;15.60;99.90
55436;DHT22;41307;53.142;6.430;2023-06-10T00:58:44;15.50;99.90
55436;DHT22;41307;53.142;6.430;2023-06-10T01:01:10;15.50;99.90
55436;DHT22;41307;53.142;6.430;2023-06-10T01:03:37;15.40;99.90
55436;DHT22;41307;53.142;6.430;2023-06-10T01:09:18;15.30;99.90
55436;DHT22;41307;53.142;6.430;2023-06-10T01:11:48;15.30;99.90
55436;DHT22;41307;53.142;6.430;2023-06-10T01:14:19;15.20;99.90
55436;DHT22;41307;53.142;6.430;2023-06-10T01:16:48;15.20;99.90
55436;DHT22;41307;53.142;6.430;2023-06-10T01:19:15;15.10;99.90
55436;DHT22;41307;53.142;6.430;2023-06-10T01:21:43;15.10;99.90
55436;DHT22;41307;53.142;6.430;2023-06-10T01:24:14;15.00;99.90
55436;DHT22;41307;53.142;6.430;2023-06-10T01:26:44;15.00;99.90
55436;DHT22;41307;53.142;6.430;2023-06-10T01:29:16;14.90;99.90
55436;DHT22;41307;53.142;6.430;2023-06-10T01:31:52;14.80;99.90
55436;DHT22;41307;53.142;6.430;2023-06-10T01:34:21;14.80;99.90
55436;DHT22;41307;53.142;6.430;2023-06-10T01:36:49;14.70;99.90
55436;DHT22;41307;53.142;6.430;2023-06-10T01:39:17;14.70;99.90
55436;DHT22;41307;53.142;6.430;2023-06-10T01:41:47;14.90;99.90
55436;DHT22;41307;53.142;6.430;2023-06-10T01:44:18;14.70;99.90
55436;DHT22;41307;53.142;6.430;2023-06-10T01:46:44;14.60;99.90
55436;DHT22;41307;53.142;6.430;2023-06-10T01:49:10;14.60;99.90
55436;DHT22;41307;53.142;6.430;2023-06-10T01:51:36;14.60;99.90
55436;DHT22;41307;53.142;6.430;2023-06-10T01:54:02;14.50;99.90
55436;DHT22;41307;53.142;6.430;2023-06-10T01:56:27;14.50;99.90
55436;DHT22;41307;53.142;6.430;2023-06-10T01:58:53;14.50;99.90
55436;DHT22;41307;53.142;6.430;2023-06-10T02:01:28;14.40;99.90
55436;DHT22;41307;53.142;6.430;2023-06-10T02:03:54;14.40;99.90
55436;DHT22;41307;53.142;6.430;2023-06-10T02:06:21;14.40;99.90
55436;DHT22;41307;53.142;6.430;2023-06-10T02:08:51;14.40;99.90
55436;DHT22;41307;53.142;6.430;2023-06-10T02:11:17;14.30;99.90
55436;DHT22;41307;53.142;6.430;2023-06-10T02:13:42;14.30;99.90
55436;DHT22;41307;53.142;6.430;2023-06-10T02:16:08;14.20;99.90
55436;DHT22;41307;53.142;6.430;2023-06-10T02:18:39;14.20;99.90
55436;DHT22;41307;53.142;6.430;2023-06-10T02:21:06;14.10;99.90
55436;DHT22;41307;53.142;6.430;2023-06-10T02:23:37;14.10;99.90
55436;DHT22;41307;53.142;6.430;2023-06-10T02:26:04;14.10;99.90
55436;DHT22;41307;53.142;6.430;2023-06-10T02:28:29;14.10;99.90
55436;DHT22;41307;53.142;6.430;2023-06-10T02:30:55;14.00;99.90
55436;DHT22;41307;53.142;6.430;2023-06-10T02:33:22;14.00;99.90
55436;DHT22;41307;53.142;6.430;2023-06-10T02:35:49;14.00;99.90
55436;DHT22;41307;53.142;6.430;2023-06-10T02:38:15;13.90;99.90
55436;DHT22;41307;53.142;6.430;2023-06-10T02:40:44;13.90;99.90
55436;DHT22;41307;53.142;6.430;2023-06-10T02:43:09;13.80;99.90
55436;DHT22;41307;53.142;6.430;2023-06-10T02:45:35;13.80;99.90
55436;DHT22;41307;53.142;6.430;2023-06-10T02:48:01;13.80;99.90
55436;DHT22;41307;53.142;6.430;2023-06-10T02:50:27;13.80;99.90
55436;DHT22;41307;53.142;6.430;2023-06-10T02:52:52;13.70;99.90
55436;DHT22;41307;53.142;6.430;2023-06-10T02:55:18;13.70;99.90
55436;DHT22;41307;53.142;6.430;2023-06-10T02:57:44;13.70;99.90
55436;DHT22;41307;53.142;6.430;2023-06-10T03:00:10;13.70;99.90
55436;DHT22;41307;53.142;6.430;2023-06-10T03:02:39;13.60;99.90
55436;DHT22;41307;53.142;6.430;2023-06-10T03:05:06;13.60;99.90
55436;DHT22;41307;53.142;6.430;2023-06-10T03:07:36;13.60;99.90
55436;DHT22;41307;53.142;6.430;2023-06-10T03:10:05;13.60;99.90
55436;DHT22;41307;53.142;6.430;2023-06-10T03:12:31;13.60;99.90
55436;DHT22;41307;53.142;6.430;2023-06-10T03:14:57;13.50;99.90
55436;DHT22;41307;53.142;6.430;2023-06-10T03:17:23;13.50;99.90
55436;DHT22;41307;53.142;6.430;2023-06-10T03:19:49;13.50;99.90
55436;DHT22;41307;53.142;6.430;2023-06-10T03:22:17;13.40;99.90
55436;DHT22;41307;53.142;6.430;2023-06-10T03:24:43;13.40;99.90
55436;DHT22;41307;53.142;6.430;2023-06-10T03:27:12;13.40;99.90
55436;DHT22;41307;53.142;6.430;2023-06-10T03:29:39;13.40;99.90
55436;DHT22;41307;53.142;6.430;2023-06-10T03:32:05;13.40;99.90
55436;DHT22;41307;53.142;6.430;2023-06-10T03:34:37;13.40;99.90
55436;DHT22;41307;53.142;6.430;2023-06-10T03:37:04;13.40;99.90
55436;DHT22;41307;53.142;6.430;2023-06-10T03:39:30;13.40;99.90
55436;DHT22;41307;53.142;6.430;2023-06-10T03:41:56;13.40;99.90
55436;DHT22;41307;53.142;6.430;2023-06-10T03:44:24;13.40;99.90
55436;DHT22;41307;53.142;6.430;2023-06-10T03:46:54;13.40;99.90
55436;DHT22;41307;53.142;6.430;2023-06-10T03:49:20;13.40;99.90
55436;DHT22;41307;53.142;6.430;2023-06-10T03:51:53;13.50;99.90
55436;DHT22;41307;53.142;6.430;2023-06-10T03:54:22;13.50;99.90
55436;DHT22;41307;53.142;6.430;2023-06-10T03:56:50;13.50;99.90
55436;DHT22;41307;53.142;6.430;2023-06-10T03:59:19;13.60;99.90
55436;DHT22;41307;53.142;6.430;2023-06-10T04:01:45;13.60;99.90
55436;DHT22;41307;53.142;6.430;2023-06-10T04:04:14;13.60;99.90
55436;DHT22;41307;53.142;6.430;2023-06-10T04:06:40;13.60;99.90
55436;DHT22;41307;53.142;6.430;2023-06-10T04:09:06;13.70;99.90
55436;DHT22;41307;53.142;6.430;2023-06-10T04:11:33;13.80;99.90
55436;DHT22;41307;53.142;6.430;2023-06-10T04:13:59;14.00;99.90
55436;DHT22;41307;53.142;6.430;2023-06-10T04:16:25;14.10;99.90
55436;DHT22;41307;53.142;6.430;2023-06-10T04:18:54;14.20;99.90
55436;DHT22;41307;53.142;6.430;2023-06-10T04:21:23;14.40;99.90
55436;DHT22;41307;53.142;6.430;2023-06-10T04:23:50;14.90;99.90
55436;DHT22;41307;53.142;6.430;2023-06-10T04:26:19;15.70;99.90
55436;DHT22;41307;53.142;6.430;2023-06-10T04:28:48;16.20;99.90
55436;DHT22;41307;53.142;6.430;2023-06-10T04:31:14;16.20;99.90
55436;DHT22;41307;53.142;6.430;2023-06-10T04:33:40;16.30;99.90
55436;DHT22;41307;53.142;6.430;2023-06-10T04:36:08;16.80;99.90
55436;DHT22;41307;53.142;6.430;2023-06-10T04:38:46;17.70;99.90
55436;DHT22;41307;53.142;6.430;2023-06-10T04:41:12;18.50;99.90
55436;DHT22;41307;53.142;6.430;2023-06-10T04:43:39;18.60;99.90
55436;DHT22;41307;53.142;6.430;2023-06-10T04:46:05;18.60;99.90
55436;DHT22;41307;53.142;6.430;2023-06-10T04:48:30;19.00;99.90
55436;DHT22;41307;53.142;6.430;2023-06-10T04:50:58;19.60;99.90
55436;DHT22;41307;53.142;6.430;2023-06-10T04:53:24;19.70;99.90
55436;DHT22;41307;53.142;6.430;2023-06-10T04:55:50;19.80;99.90
55436;DHT22;41307;53.142;6.430;2023-06-10T04:58:16;19.30;99.90
55436;DHT22;41307;53.142;6.430;2023-06-10T05:00:42;18.50;99.90
55436;DHT22;41307;53.142;6.430;2023-06-10T05:03:07;18.00;99.90
55436;DHT22;41307;53.142;6.430;2023-06-10T05:05:33;17.60;99.90
55436;DHT22;41307;53.142;6.430;2023-06-10T05:07:59;17.70;99.90
55436;DHT22;41307;53.142;6.430;2023-06-10T05:10:27;18.10;99.90
55436;DHT22;41307;53.142;6.430;2023-06-10T05:12:57;18.60;99.90
55436;DHT22;41307;53.142;6.430;2023-06-10T05:15:24;19.60;99.90
55436;DHT22;41307;53.142;6.430;2023-06-10T05:17:49;20.60;99.90
55436;DHT22;41307;53.142;6.430;2023-06-10T05:20:15;21.10;99.90
55436;DHT22;41307;53.142;6.430;2023-06-10T05:22:50;21.70;99.90
55436;DHT22;41307;53.142;6.430;2023-06-10T05:25:16;22.00;99.90
55436;DHT22;41307;53.142;6.430;2023-06-10T05:27:42;22.70;99.90
55436;DHT22;41307;53.142;6.430;2023-06-10T05:30:10;23.20;99.90
55436;DHT22;41307;53.142;6.430;2023-06-10T05:32:38;23.50;99.90
55436;DHT22;41307;53.142;6.430;2023-06-10T05:35:04;23.90;99.90
55436;DHT22;41307;53.142;6.430;2023-06-10T05:37:33;24.20;99.90
55436;DHT22;41307;53.142;6.430;2023-06-10T05:39:58;24.40;99.90
55436;DHT22;41307;53.142;6.430;2023-06-10T05:42:24;24.60;99.90
55436;DHT22;41307;53.142;6.430;2023-06-10T05:44:50;24.90;99.90
55436;DHT22;41307;53.142;6.430;2023-06-10T05:47:18;24.80;99.90
55436;DHT22;41307;53.142;6.430;2023-06-10T05:49:44;25.20;99.90
55436;DHT22;41307;53.142;6.430;2023-06-10T05:52:13;25.20;99.90
55436;DHT22;41307;53.142;6.430;2023-06-10T05:54:39;25.30;97.40
55436;DHT22;41307;53.142;6.430;2023-06-10T05:57:05;25.70;97.10
55436;DHT22;41307;53.142;6.430;2023-06-10T05:59:34;25.70;98.70
55436;DHT22;41307;53.142;6.430;2023-06-10T06:02:03;25.80;96.00
55436;DHT22;41307;53.142;6.430;2023-06-10T06:04:28;25.80;95.80
55436;DHT22;41307;53.142;6.430;2023-06-10T06:06:54;25.80;96.50
55436;DHT22;41307;53.142;6.430;2023-06-10T06:09:20;26.00;95.50
55436;DHT22;41307;53.142;6.430;2023-06-10T06:11:48;26.00;92.80
55436;DHT22;41307;53.142;6.430;2023-06-10T06:14:14;26.00;93.70
55436;DHT22;41307;53.142;6.430;2023-06-10T06:16:40;25.90;91.90
55436;DHT22;41307;53.142;6.430;2023-06-10T06:19:06;26.20;92.80
55436;DHT22;41307;53.142;6.430;2023-06-10T06:21:32;26.30;92.70
55436;DHT22;41307;53.142;6.430;2023-06-10T06:23:59;26.60;92.10
55436;DHT22;41307;53.142;6.430;2023-06-10T06:26:25;26.80;92.10
55436;DHT22;41307;53.142;6.430;2023-06-10T06:28:51;27.20;91.70
55436;DHT22;41307;53.142;6.430;2023-06-10T06:31:19;27.20;89.90
55436;DHT22;41307;53.142;6.430;2023-06-10T06:33:48;27.20;88.40
55436;DHT22;41307;53.142;6.430;2023-06-10T06:36:17;27.10;88.00
55436;DHT22;41307;53.142;6.430;2023-06-10T06:38:43;27.20;88.50
55436;DHT22;41307;53.142;6.430;2023-06-10T06:41:08;27.50;87.70
55436;DHT22;41307;53.142;6.430;2023-06-10T06:43:34;27.50;85.10
55436;DHT22;41307;53.142;6.430;2023-06-10T06:46:00;27.60;87.00
55436;DHT22;41307;53.142;6.430;2023-06-10T06:48:26;27.70;86.50
55436;DHT22;41307;53.142;6.430;2023-06-10T06:50:51;27.50;86.50
55436;DHT22;41307;53.142;6.430;2023-06-10T06:53:17;27.90;84.90
55436;DHT22;41307;53.142;6.430;2023-06-10T06:55:43;27.80;83.80
55436;DHT22;41307;53.142;6.430;2023-06-10T06:58:09;27.90;80.70
55436;DHT22;41307;53.142;6.430;2023-06-10T07:00:34;27.60;81.90
55436;DHT22;41307;53.142;6.430;2023-06-10T07:03:00;27.80;83.30
55436;DHT22;41307;53.142;6.430;2023-06-10T07:05:26;27.70;82.20
55436;DHT22;41307;53.142;6.430;2023-06-10T07:07:53;27.80;80.50
55436;DHT22;41307;53.142;6.430;2023-06-10T07:10:25;27.70;80.90
55436;DHT22;41307;53.142;6.430;2023-06-10T07:12:51;27.50;79.30
55436;DHT22;41307;53.142;6.430;2023-06-10T07:15:17;27.50;80.50
55436;DHT22;41307;53.142;6.430;2023-06-10T07:17:43;27.80;80.90
55436;DHT22;41307;53.142;6.430;2023-06-10T07:20:10;28.10;80.70
55436;DHT22;41307;53.142;6.430;2023-06-10T07:22:36;28.50;79.80
55436;DHT22;41307;53.142;6.430;2023-06-10T07:25:04;28.80;79.10
55436;DHT22;41307;53.142;6.430;2023-06-10T07:27:31;28.90;77.60
55436;DHT22;41307;53.142;6.430;2023-06-10T07:29:56;28.50;77.00
55436;DHT22;41307;53.142;6.430;2023-06-10T07:32:22;28.70;76.90
55436;DHT22;41307;53.142;6.430;2023-06-10T07:34:50;28.70;76.10
55436;DHT22;41307;53.142;6.430;2023-06-10T07:37:18;28.60;74.80
55436;DHT22;41307;53.142;6.430;2023-06-10T07:39:45;28.80;74.80
55436;DHT22;41307;53.142;6.430;2023-06-10T07:42:11;28.70;73.30
55436;DHT22;41307;53.142;6.430;2023-06-10T07:44:39;28.80;74.20
55436;DHT22;41307;53.142;6.430;2023-06-10T07:47:05;28.60;71.50
55436;DHT22;41307;53.142;6.430;2023-06-10T07:49:31;28.60;72.10
55436;DHT22;41307;53.142;6.430;2023-06-10T07:51:57;28.70;71.70
55436;DHT22;41307;53.142;6.430;2023-06-10T07:54:23;28.70;70.90
55436;DHT22;41307;53.142;6.430;2023-06-10T07:56:48;28.70;71.70
55436;DHT22;41307;53.142;6.430;2023-06-10T07:59:14;28.80;71.20
55436;DHT22;41307;53.142;6.430;2023-06-10T08:01:40;29.30;72.20
55436;DHT22;41307;53.142;6.430;2023-06-10T08:04:07;29.40;70.50
55436;DHT22;41307;53.142;6.430;2023-06-10T08:06:33;29.60;70.30
55436;DHT22;41307;53.142;6.430;2023-06-10T08:08:59;29.90;71.10
55436;DHT22;41307;53.142;6.430;2023-06-10T08:11:26;29.80;69.70
55436;DHT22;41307;53.142;6.430;2023-06-10T08:13:54;29.50;68.90
55436;DHT22;41307;53.142;6.430;2023-06-10T08:16:20;29.20;67.90
55436;DHT22;41307;53.142;6.430;2023-06-10T08:18:45;29.10;68.50
55436;DHT22;41307;53.142;6.430;2023-06-10T08:21:11;29.10;68.40
55436;DHT22;41307;53.142;6.430;2023-06-10T08:23:37;29.30;67.10
55436;DHT22;41307;53.142;6.430;2023-06-10T08:26:03;29.40;68.40
55436;DHT22;41307;53.142;6.430;2023-06-10T08:28:29;29.40;68.60
55436;DHT22;41307;53.142;6.430;2023-06-10T08:30:54;29.50;68.80
55436;DHT22;41307;53.142;6.430;2023-06-10T08:33:20;29.50;68.20
55436;DHT22;41307;53.142;6.430;2023-06-10T08:35:46;29.50;68.90
55436;DHT22;41307;53.142;6.430;2023-06-10T08:38:12;29.40;67.50
55436;DHT22;41307;53.142;6.430;2023-06-10T08:40:38;29.40;68.40
55436;DHT22;41307;53.142;6.430;2023-06-10T08:43:07;29.00;68.30
55436;DHT22;41307;53.142;6.430;2023-06-10T08:45:35;29.30;68.60
55436;DHT22;41307;53.142;6.430;2023-06-10T08:48:04;29.40;67.80
55436;DHT22;41307;53.142;6.430;2023-06-10T08:50:37;29.20;67.70
55436;DHT22;41307;53.142;6.430;2023-06-10T08:53:07;29.40;69.00
55436;DHT22;41307;53.142;6.430;2023-06-10T08:55:36;29.20;67.40
55436;DHT22;41307;53.142;6.430;2023-06-10T08:58:06;29.10;66.70
55436;DHT22;41307;53.142;6.430;2023-06-10T09:00:36;28.80;66.80
55436;DHT22;41307;53.142;6.430;2023-06-10T09:03:03;29.20;67.00
55436;DHT22;41307;53.142;6.430;2023-06-10T09:05:33;29.20;66.50
55436;DHT22;41307;53.142;6.430;2023-06-10T09:08:00;29.30;66.90
55436;DHT22;41307;53.142;6.430;2023-06-10T09:10:26;29.30;66.20
55436;DHT22;41307;53.142;6.430;2023-06-10T09:12:52;29.20;67.10
55436;DHT22;41307;53.142;6.430;2023-06-10T09:15:18;28.80;66.40
55436;DHT22;41307;53.142;6.430;2023-06-10T09:17:44;28.50;67.40
55436;DHT22;41307;53.142;6.430;2023-06-10T09:20:14;28.40;67.70
55436;DHT22;41307;53.142;6.430;2023-06-10T09:22:44;28.50;68.90
55436;DHT22;41307;53.142;6.430;2023-06-10T09:25:12;28.70;68.30
55436;DHT22;41307;53.142;6.430;2023-06-10T09:27:48;28.60;67.20
55436;DHT22;41307;53.142;6.430;2023-06-10T09:30:48;28.70;67.10
55436;DHT22;41307;53.142;6.430;2023-06-10T09:33:15;28.80;66.30
55436;DHT22;41307;53.142;6.430;2023-06-10T09:35:50;28.90;67.90
55436;DHT22;41307;53.142;6.430;2023-06-10T09:38:19;29.00;67.50
55436;DHT22;41307;53.142;6.430;2023-06-10T09:40:50;28.80;68.80
55436;DHT22;41307;53.142;6.430;2023-06-10T09:43:16;28.70;68.90
55436;DHT22;41307;53.142;6.430;2023-06-10T09:45:42;28.60;68.80
55436;DHT22;41307;53.142;6.430;2023-06-10T09:48:09;28.60;69.20
55436;DHT22;41307;53.142;6.430;2023-06-10T09:50:36;28.40;68.20
55436;DHT22;41307;53.142;6.430;2023-06-10T09:53:09;28.50;68.80
55436;DHT22;41307;53.142;6.430;2023-06-10T09:55:38;28.50;68.90
55436;DHT22;41307;53.142;6.430;2023-06-10T09:58:04;28.70;69.60
55436;DHT22;41307;53.142;6.430;2023-06-10T10:00:34;28.70;68.90
55436;DHT22;41307;53.142;6.430;2023-06-10T10:03:01;28.80;68.90
55436;DHT22;41307;53.142;6.430;2023-06-10T10:05:27;28.70;68.70
55436;DHT22;41307;53.142;6.430;2023-06-10T10:07:53;29.00;69.10
55436;DHT22;41307;53.142;6.430;2023-06-10T10:10:20;28.80;68.40
55436;DHT22;41307;53.142;6.430;2023-06-10T10:12:48;28.60;67.80
55436;DHT22;41307;53.142;6.430;2023-06-10T10:15:16;28.60;68.10
55436;DHT22;41307;53.142;6.430;2023-06-10T10:17:56;28.80;68.50
55436;DHT22;41307;53.142;6.430;2023-06-10T10:20:27;28.80;65.50
55436;DHT22;41307;53.142;6.430;2023-06-10T10:22:57;28.80;65.70
55436;DHT22;41307;53.142;6.430;2023-06-10T10:25:29;28.80;67.10
55436;DHT22;41307;53.142;6.430;2023-06-10T10:28:05;28.70;66.30
55436;DHT22;41307;53.142;6.430;2023-06-10T10:30:46;28.50;66.80
55436;DHT22;41307;53.142;6.430;2023-06-10T10:33:19;28.80;67.70
55436;DHT22;41307;53.142;6.430;2023-06-10T10:35:47;28.80;67.20
55436;DHT22;41307;53.142;6.430;2023-06-10T10:38:14;29.10;67.70
55436;DHT22;41307;53.142;6.430;2023-06-10T10:40:41;29.30;67.20
55436;DHT22;41307;53.142;6.430;2023-06-10T10:43:08;29.60;66.40
55436;DHT22;41307;53.142;6.430;2023-06-10T10:45:34;29.70;65.90
55436;DHT22;41307;53.142;6.430;2023-06-10T10:48:08;29.80;65.30
55436;DHT22;41307;53.142;6.430;2023-06-10T10:50:37;29.70;64.70
55436;DHT22;41307;53.142;6.430;2023-06-10T10:53:04;29.80;65.30
55436;DHT22;41307;53.142;6.430;2023-06-10T10:55:31;29.60;63.70
55436;DHT22;41307;53.142;6.430;2023-06-10T11:00:30;29.40;62.70
55436;DHT22;41307;53.142;6.430;2023-06-10T11:05:42;29.60;63.80
55436;DHT22;41307;53.142;6.430;2023-06-10T11:08:45;29.70;63.70
55436;DHT22;41307;53.142;6.430;2023-06-10T11:16:28;29.60;62.00
55436;DHT22;41307;53.142;6.430;2023-06-10T11:18:54;29.40;60.50
55436;DHT22;41307;53.142;6.430;2023-06-10T11:21:22;29.30;62.00
55436;DHT22;41307;53.142;6.430;2023-06-10T11:23:51;29.20;62.30
55436;DHT22;41307;53.142;6.430;2023-06-10T11:26:20;29.10;61.40
55436;DHT22;41307;53.142;6.430;2023-06-10T11:31:33;29.30;60.70
55436;DHT22;41307;53.142;6.430;2023-06-10T11:34:03;29.20;58.80
55436;DHT22;41307;53.142;6.430;2023-06-10T11:36:30;29.30;60.30
55436;DHT22;41307;53.142;6.430;2023-06-10T11:41:25;29.30;60.90
55436;DHT22;41307;53.142;6.430;2023-06-10T11:43:55;29.10;61.00
55436;DHT22;41307;53.142;6.430;2023-06-10T11:46:24;29.30;61.60
55436;DHT22;41307;53.142;6.430;2023-06-10T11:48:54;29.50;60.80
55436;DHT22;41307;53.142;6.430;2023-06-10T11:51:24;29.50;59.30
55436;DHT22;41307;53.142;6.430;2023-06-10T11:53:50;29.50;58.50
55436;DHT22;41307;53.142;6.430;2023-06-10T11:56:23;29.30;59.20
55436;DHT22;41307;53.142;6.430;2023-06-10T11:58:58;29.20;60.10
55436;DHT22;41307;53.142;6.430;2023-06-10T12:01:26;29.20;61.00
55436;DHT22;41307;53.142;6.430;2023-06-10T12:04:04;29.20;59.50
55436;DHT22;41307;53.142;6.430;2023-06-10T12:07:05;29.30;60.10
55436;DHT22;41307;53.142;6.430;2023-06-10T12:09:31;28.80;61.40
55436;DHT22;41307;53.142;6.430;2023-06-10T12:12:02;28.90;61.40
55436;DHT22;41307;53.142;6.430;2023-06-10T12:14:51;28.90;61.20
55436;DHT22;41307;53.142;6.430;2023-06-10T12:17:24;28.60;59.70
55436;DHT22;41307;53.142;6.430;2023-06-10T12:19:51;28.60;59.20
55436;DHT22;41307;53.142;6.430;2023-06-10T12:22:21;28.50;59.40
55436;DHT22;41307;53.142;6.430;2023-06-10T12:25:05;28.70;60.00
55436;DHT22;41307;53.142;6.430;2023-06-10T12:27:35;28.80;60.60
55436;DHT22;41307;53.142;6.430;2023-06-10T12:30:04;28.90;59.70
55436;DHT22;41307;53.142;6.430;2023-06-10T12:32:44;28.80;59.30
55436;DHT22;41307;53.142;6.430;2023-06-10T12:35:21;28.50;57.90
55436;DHT22;41307;53.142;6.430;2023-06-10T12:40:28;28.20;60.20
55436;DHT22;41307;53.142;6.430;2023-06-10T12:42:55;28.10;61.30
55436;DHT22;41307;53.142;6.430;2023-06-10T12:45:33;28.00;60.60
55436;DHT22;41307;53.142;6.430;2023-06-10T12:48:20;28.00;60.90
55436;DHT22;41307;53.142;6.430;2023-06-10T12:50:58;28.00;61.50
55436;DHT22;41307;53.142;6.430;2023-06-10T12:53:25;28.00;61.20
55436;DHT22;41307;53.142;6.430;2023-06-10T12:55:54;28.00;59.60
55436;DHT22;41307;53.142;6.430;2023-06-10T12:58:23;28.10;60.50
55436;DHT22;41307;53.142;6.430;2023-06-10T13:00:49;27.90;60.80
55436;DHT22;41307;53.142;6.430;2023-06-10T13:03:18;27.80;61.30
55436;DHT22;41307;53.142;6.430;2023-06-10T13:05:43;27.80;60.80
55436;DHT22;41307;53.142;6.430;2023-06-10T13:08:09;27.80;60.80
55436;DHT22;41307;53.142;6.430;2023-06-10T13:10:36;27.70;60.80
55436;DHT22;41307;53.142;6.430;2023-06-10T13:13:02;27.70;61.40
55436;DHT22;41307;53.142;6.430;2023-06-10T13:15:33;27.60;61.80
55436;DHT22;41307;53.142;6.430;2023-06-10T13:18:03;27.40;61.50
55436;DHT22;41307;53.142;6.430;2023-06-10T13:20:29;27.50;61.90
55436;DHT22;41307;53.142;6.430;2023-06-10T13:22:55;27.50;62.40
55436;DHT22;41307;53.142;6.430;2023-06-10T13:25:21;27.50;63.30
55436;DHT22;41307;53.142;6.430;2023-06-10T13:27:47;27.50;63.70
55436;DHT22;41307;53.142;6.430;2023-06-10T13:30:12;27.40;63.80
55436;DHT22;41307;53.142;6.430;2023-06-10T13:32:38;27.20;64.20
55436;DHT22;41307;53.142;6.430;2023-06-10T13:35:05;27.10;64.90
55436;DHT22;41307;53.142;6.430;2023-06-10T13:37:30;27.00;65.40
55436;DHT22;41307;53.142;6.430;2023-06-10T13:39:56;27.00;65.70
55436;DHT22;41307;53.142;6.430;2023-06-10T13:42:22;26.90;66.00
55436;DHT22;41307;53.142;6.430;2023-06-10T13:44:48;26.90;65.90
55436;DHT22;41307;53.142;6.430;2023-06-10T13:47:14;26.90;65.90
55436;DHT22;41307;53.142;6.430;2023-06-10T13:49:41;26.80;65.70
55436;DHT22;41307;53.142;6.430;2023-06-10T13:52:07;26.90;66.20
55436;DHT22;41307;53.142;6.430;2023-06-10T13:54:34;26.90;66.90
55436;DHT22;41307;53.142;6.430;2023-06-10T13:57:03;26.90;66.90
55436;DHT22;41307;53.142;6.430;2023-06-10T13:59:29;26.90;67.40
55436;DHT22;41307;53.142;6.430;2023-06-10T14:01:55;26.90;67.40
55436;DHT22;41307;53.142;6.430;2023-06-10T14:04:22;26.90;67.20
55436;DHT22;41307;53.142;6.430;2023-06-10T14:06:48;26.90;67.20
55436;DHT22;41307;53.142;6.430;2023-06-10T14:09:16;26.90;64.80
55436;DHT22;41307;53.142;6.430;2023-06-10T14:11:45;26.90;62.80
55436;DHT22;41307;53.142;6.430;2023-06-10T14:14:10;27.00;61.90
55436;DHT22;41307;53.142;6.430;2023-06-10T14:16:36;27.10;61.90
55436;DHT22;41307;53.142;6.430;2023-06-10T14:19:02;27.00;60.70
55436;DHT22;41307;53.142;6.430;2023-06-10T14:21:28;27.00;60.50
55436;DHT22;41307;53.142;6.430;2023-06-10T14:23:54;27.00;59.70
55436;DHT22;41307;53.142;6.430;2023-06-10T14:26:19;27.00;59.60
55436;DHT22;41307;53.142;6.430;2023-06-10T14:28:49;27.00;59.90
55436;DHT22;41307;53.142;6.430;2023-06-10T14:31:16;27.00;60.50
55436;DHT22;41307;53.142;6.430;2023-06-10T14:33:41;27.00;59.90
55436;DHT22;41307;53.142;6.430;2023-06-10T14:36:09;27.00;59.80
55436;DHT22;41307;53.142;6.430;2023-06-10T14:38:35;27.00;58.80
55436;DHT22;41307;53.142;6.430;2023-06-10T14:41:01;26.90;59.20
55436;DHT22;41307;53.142;6.430;2023-06-10T14:43:27;26.80;60.30
55436;DHT22;41307;53.142;6.430;2023-06-10T14:45:53;26.70;60.90
55436;DHT22;41307;53.142;6.430;2023-06-10T14:48:21;27.00;61.60
55436;DHT22;41307;53.142;6.430;2023-06-10T14:50:47;26.60;62.10
55436;DHT22;41307;53.142;6.430;2023-06-10T14:53:17;26.60;63.00
55436;DHT22;41307;53.142;6.430;2023-06-10T14:55:43;26.60;63.30
55436;DHT22;41307;53.142;6.430;2023-06-10T14:58:08;26.50;63.70
55436;DHT22;41307;53.142;6.430;2023-06-10T15:00:34;26.60;63.60
55436;DHT22;41307;53.142;6.430;2023-06-10T15:03:00;26.50;63.80
55436;DHT22;41307;53.142;6.430;2023-06-10T15:05:26;26.50;64.30
55436;DHT22;41307;53.142;6.430;2023-06-10T15:07:52;26.40;64.40
55436;DHT22;41307;53.142;6.430;2023-06-10T15:10:17;26.40;64.80
55436;DHT22;41307;53.142;6.430;2023-06-10T15:12:43;26.50;65.20
55436;DHT22;41307;53.142;6.430;2023-06-10T15:15:09;26.60;65.60
55436;DHT22;41307;53.142;6.430;2023-06-10T15:17:35;26.60;65.50
55436;DHT22;41307;53.142;6.430;2023-06-10T15:20:02;26.70;65.70
55436;DHT22;41307;53.142;6.430;2023-06-10T15:22:28;26.60;65.70
55436;DHT22;41307;53.142;6.430;2023-06-10T15:24:53;26.60;65.90
55436;DHT22;41307;53.142;6.430;2023-06-10T15:27:20;26.60;66.70
55436;DHT22;41307;53.142;6.430;2023-06-10T15:29:45;26.60;66.10
55436;DHT22;41307;53.142;6.430;2023-06-10T15:32:11;26.50;66.10
55436;DHT22;41307;53.142;6.430;2023-06-10T15:34:37;26.50;66.40
55436;DHT22;41307;53.142;6.430;2023-06-10T15:37:05;26.50;66.30
55436;DHT22;41307;53.142;6.430;2023-06-10T15:39:30;26.50;66.00
55436;DHT22;41307;53.142;6.430;2023-06-10T15:41:56;26.40;66.00
55436;DHT22;41307;53.142;6.430;2023-06-10T15:44:23;26.30;66.00
55436;DHT22;41307;53.142;6.430;2023-06-10T15:46:48;26.30;66.00
55436;DHT22;41307;53.142;6.430;2023-06-10T15:49:18;26.30;65.50
55436;DHT22;41307;53.142;6.430;2023-06-10T15:51:44;26.20;65.50
55436;DHT22;41307;53.142;6.430;2023-06-10T15:54:10;26.20;65.70
55436;DHT22;41307;53.142;6.430;2023-06-10T15:56:36;26.20;65.80